createdAt,value
2019-06-08T00:02:16.641Z,67.21
2019-06-08T00:04:42.717Z,67.33
2019-06-08T00:07:08.601Z,67.49
2019-06-08T00:09:34.602Z,67.61
2019-06-08T00:12:00.605Z,67.71
2019-06-08T00:14:26.537Z,67.83
2019-06-08T00:16:52.465Z,67.92
2019-06-08T00:19:19.408Z,68.06
2019-06-08T00:21:45.557Z,68.15
2019-06-08T00:24:11.586Z,68.22
2019-06-08T00:26:37.534Z,68.27
2019-06-08T00:29:03.631Z,68.26
2019-06-08T00:31:29.566Z,68.33
2019-06-08T00:33:55.454Z,68.39
2019-06-08T00:36:21.375Z,68.50
2019-06-08T00:38:47.304Z,68.48
2019-06-08T00:41:13.199Z,68.54
2019-06-08T00:43:39.350Z,68.66
2019-06-08T00:46:05.259Z,68.77
2019-06-08T00:48:31.160Z,68.98
2019-06-08T00:50:57.064Z,69.21
2019-06-08T00:53:23.260Z,69.42
2019-06-08T00:55:49.403Z,69.64
2019-06-08T00:58:15.420Z,69.78
2019-06-08T01:00:41.590Z,70.01
2019-06-08T01:03:07.607Z,70.21
2019-06-08T01:05:33.831Z,70.32
2019-06-08T01:07:59.716Z,70.42
2019-06-08T01:10:26.063Z,70.58
2019-06-08T01:12:52.402Z,70.75
2019-06-08T01:15:23.737Z,70.83
2019-06-08T01:18:01.606Z,70.90
2019-06-08T01:20:14.587Z,70.94
2019-06-08T01:22:40.772Z,71.01
2019-06-08T01:25:07.069Z,71.02
2019-06-08T01:27:33.114Z,71.02
2019-06-08T01:29:59.105Z,71.03
2019-06-08T01:32:25.015Z,71.10
2019-06-08T01:34:51.240Z,71.09
2019-06-08T01:37:17.122Z,71.07
2019-06-08T01:39:43.005Z,71.09
2019-06-08T01:42:09.072Z,71.15
2019-06-08T01:44:34.998Z,71.21
2019-06-08T01:47:00.882Z,71.31
2019-06-08T01:49:26.833Z,71.28
2019-06-08T01:51:52.753Z,71.49
2019-06-08T01:54:18.777Z,71.78
2019-06-08T01:56:44.796Z,71.88
2019-06-08T01:59:11.398Z,71.95
2019-06-08T02:01:37.519Z,71.97
2019-06-08T02:04:03.666Z,71.97
2019-06-08T02:06:30.426Z,71.99
2019-06-08T02:08:56.382Z,72.10
2019-06-08T02:11:22.320Z,72.12
2019-06-08T02:13:48.331Z,72.24
2019-06-08T02:16:14.349Z,72.21
2019-06-08T02:18:50.095Z,72.22
2019-06-08T02:21:08.283Z,72.32
2019-06-08T02:23:35.169Z,72.37
2019-06-08T02:26:01.141Z,72.36
2019-06-08T02:28:27.429Z,72.44
2019-06-08T02:30:53.341Z,72.40
2019-06-08T02:33:19.391Z,72.36
2019-06-08T02:35:45.503Z,72.42
2019-06-08T02:38:11.490Z,72.39
2019-06-08T02:40:37.636Z,72.38
2019-06-08T02:43:03.759Z,72.43
2019-06-08T02:45:31.860Z,72.36
2019-06-08T02:47:57.677Z,72.46
2019-06-08T02:50:48.437Z,72.56
2019-06-08T02:53:15.488Z,72.54
2019-06-08T02:55:42.295Z,72.44
2019-06-08T02:58:08.424Z,72.49
2019-06-08T03:00:37.391Z,72.49
2019-06-08T03:03:04.674Z,72.53
2019-06-08T03:05:32.064Z,72.61
2019-06-08T03:08:00.420Z,72.72
2019-06-08T03:10:27.834Z,72.71
2019-06-08T03:12:54.336Z,72.67
2019-06-08T03:15:28.407Z,72.64
2019-06-08T03:17:54.291Z,72.59
2019-06-08T03:20:20.209Z,72.65
2019-06-08T03:22:46.172Z,72.73
2019-06-08T03:25:12.082Z,72.77
2019-06-08T03:27:38.930Z,72.73
2019-06-08T03:30:16.425Z,72.76
2019-06-08T03:32:37.772Z,72.71
2019-06-08T03:35:04.274Z,72.71
2019-06-08T03:37:30.196Z,72.72
2019-06-08T03:39:56.089Z,72.64
2019-06-08T03:42:21.985Z,72.68
2019-06-08T03:44:47.946Z,72.66
2019-06-08T03:47:14.045Z,72.63
2019-06-08T03:49:48.783Z,72.51
2019-06-08T03:52:07.887Z,72.60
2019-06-08T03:54:35.910Z,72.54
2019-06-08T03:57:01.599Z,72.60
2019-06-08T03:59:27.580Z,72.58
2019-06-08T04:01:53.693Z,72.33
2019-06-08T04:04:19.715Z,72.30
2019-06-08T04:06:45.910Z,72.36
2019-06-08T04:09:11.776Z,72.34
2019-06-08T04:11:37.892Z,72.34
2019-06-08T04:14:04.391Z,72.33
2019-06-08T04:16:30.437Z,72.24
2019-06-08T04:18:56.341Z,72.29
2019-06-08T04:21:22.368Z,72.33
2019-06-08T04:23:48.370Z,72.20
2019-06-08T04:26:14.273Z,72.20
2019-06-08T04:28:40.588Z,72.20
2019-06-08T04:31:06.489Z,72.11
2019-06-08T04:33:32.412Z,72.03
2019-06-08T04:35:58.540Z,72.03
2019-06-08T04:38:24.443Z,72.16
2019-06-08T04:40:50.440Z,72.22
2019-06-08T04:43:16.354Z,72.19
2019-06-08T04:45:43.557Z,72.29
2019-06-08T04:48:10.067Z,72.30
2019-06-08T04:50:36.074Z,72.39
2019-06-08T04:53:02.220Z,72.34
2019-06-08T04:55:28.091Z,72.31
2019-06-08T04:57:54.130Z,72.43
2019-06-08T05:00:20.242Z,72.57
2019-06-08T05:02:48.707Z,72.59
2019-06-08T05:05:14.763Z,72.63
2019-06-08T05:07:41.538Z,72.51
2019-06-08T05:10:11.253Z,72.52
2019-06-08T05:12:37.171Z,72.65
2019-06-08T05:15:08.123Z,72.63
2019-06-08T05:17:34.080Z,72.45
2019-06-08T05:20:00.060Z,72.36
2019-06-08T05:22:26.063Z,72.35
2019-06-08T05:24:51.996Z,72.38
2019-06-08T05:27:17.921Z,72.34
2019-06-08T05:29:43.848Z,72.26
2019-06-08T05:32:09.860Z,72.21
2019-06-08T05:34:35.766Z,72.11
2019-06-08T05:37:01.766Z,72.00
2019-06-08T05:39:27.804Z,71.96
2019-06-08T05:41:53.825Z,72.04
2019-06-08T05:44:19.737Z,72.11
2019-06-08T05:46:45.822Z,72.14
2019-06-08T05:49:11.730Z,72.05
2019-06-08T05:51:37.647Z,71.90
2019-06-08T05:54:03.693Z,71.96
2019-06-08T05:56:29.801Z,71.94
2019-06-08T05:58:55.787Z,71.83
2019-06-08T06:01:22.024Z,71.86
2019-06-08T06:03:48.724Z,71.84
2019-06-08T06:06:14.877Z,71.82
2019-06-08T06:08:41.125Z,71.80
2019-06-08T06:11:07.230Z,71.82
2019-06-08T06:13:33.113Z,71.83
2019-06-08T06:15:59.030Z,71.81
2019-06-08T06:18:25.506Z,71.81
2019-06-08T06:20:51.791Z,71.88
2019-06-08T06:23:17.750Z,71.83
2019-06-08T06:25:43.857Z,71.83
2019-06-08T06:28:09.746Z,71.84
2019-06-08T06:30:35.785Z,71.92
2019-06-08T06:33:01.835Z,71.96
2019-06-08T06:35:27.841Z,71.94
2019-06-08T06:37:53.733Z,71.99
2019-06-08T06:40:19.747Z,71.97
2019-06-08T06:42:46.011Z,71.88
2019-06-08T06:45:12.283Z,71.80
2019-06-08T06:47:38.285Z,71.84
2019-06-08T06:50:05.094Z,71.79
2019-06-08T06:52:31.012Z,71.76
2019-06-08T06:54:57.027Z,71.66
2019-06-08T06:57:23.141Z,71.56
2019-06-08T06:59:49.284Z,71.47
2019-06-08T07:02:15.464Z,71.38
2019-06-08T07:04:41.392Z,71.38
2019-06-08T07:07:07.624Z,71.41
2019-06-08T07:09:33.624Z,71.26
2019-06-08T07:11:59.629Z,71.12
2019-06-08T07:14:25.568Z,71.07
2019-06-08T07:16:51.970Z,70.96
2019-06-08T07:19:17.910Z,70.88
2019-06-08T07:21:43.931Z,70.81
2019-06-08T07:24:09.831Z,70.63
2019-06-08T07:26:35.823Z,70.56
2019-06-08T07:29:01.998Z,70.51
2019-06-08T07:31:27.899Z,70.46
2019-06-08T07:33:53.800Z,70.35
2019-06-08T07:36:19.716Z,70.28
2019-06-08T07:38:45.617Z,70.14
2019-06-08T07:41:11.610Z,70.12
2019-06-08T07:43:37.651Z,70.21
2019-06-08T07:46:03.663Z,70.02
2019-06-08T07:48:29.674Z,69.73
2019-06-08T07:50:56.408Z,69.58
2019-06-08T07:53:22.508Z,69.52
2019-06-08T07:55:49.955Z,69.27
2019-06-08T07:58:16.085Z,69.02
2019-06-08T08:00:41.995Z,68.84
2019-06-08T08:03:08.106Z,68.84
2019-06-08T08:05:34.031Z,68.66
2019-06-08T08:08:00.142Z,68.64
2019-06-08T08:10:26.257Z,68.66
2019-06-08T08:12:52.723Z,68.73
2019-06-08T08:15:18.809Z,68.74
2019-06-08T08:17:44.918Z,68.59
2019-06-08T08:20:12.187Z,68.41
2019-06-08T08:22:38.412Z,68.39
2019-06-08T08:25:08.038Z,68.29
2019-06-08T08:27:34.037Z,68.16
2019-06-08T08:30:01.803Z,68.06
2019-06-08T08:32:28.405Z,67.97
2019-06-08T21:23:00.051Z,63.72
2019-06-08T21:25:28.093Z,65.27
2019-06-08T21:27:54.218Z,66.75
2019-06-08T21:30:24.476Z,67.65
2019-06-08T21:32:51.694Z,68.20
2019-06-08T21:35:18.203Z,68.59
2019-06-08T21:37:43.920Z,68.93
2019-06-08T21:40:10.215Z,69.30
2019-06-08T21:42:37.131Z,69.55
2019-06-08T21:45:09.288Z,69.61
2019-06-08T21:47:34.026Z,69.64
2019-06-08T21:50:01.940Z,69.66
2019-06-08T21:52:27.852Z,69.68
2019-06-08T21:54:54.367Z,69.67
2019-06-08T21:57:20.391Z,69.70
2019-06-08T21:59:48.555Z,69.68
2019-06-08T22:02:14.299Z,69.66
2019-06-08T22:04:40.286Z,69.61
2019-06-08T22:07:07.095Z,69.59
2019-06-08T22:09:33.121Z,69.63
2019-06-08T22:12:00.924Z,69.76
2019-06-08T22:14:27.407Z,69.81
2019-06-08T22:16:54.216Z,70.09
2019-06-08T22:19:21.291Z,70.58
2019-06-08T22:21:48.063Z,70.66
2019-06-08T22:24:14.416Z,70.77
2019-06-08T22:26:40.316Z,70.88
2019-06-08T22:29:07.898Z,70.82
2019-06-08T22:31:34.083Z,70.95
2019-06-08T22:34:02.094Z,71.00
2019-06-08T22:36:28.025Z,71.10
2019-06-08T22:38:54.463Z,71.28
2019-06-08T22:41:20.342Z,71.40
2019-06-08T22:43:48.188Z,71.46
2019-06-08T22:46:14.064Z,71.71
2019-06-08T22:48:39.984Z,71.89
2019-06-08T22:51:08.040Z,71.96
2019-06-08T22:53:33.821Z,71.92
2019-06-08T22:56:02.304Z,71.81
2019-06-08T22:58:27.738Z,71.71
2019-06-08T23:00:56.026Z,71.62
2019-06-08T23:03:21.787Z,71.60
2019-06-08T23:05:47.867Z,71.61
2019-06-08T23:08:13.762Z,71.58
2019-06-08T23:10:39.676Z,71.54
2019-06-08T23:13:08.313Z,71.52
2019-06-08T23:15:33.526Z,71.49
2019-06-08T23:18:01.238Z,71.44
2019-06-08T23:20:27.700Z,71.40
2019-06-08T23:22:53.630Z,71.35
2019-06-08T23:25:19.838Z,71.33
2019-06-08T23:27:48.226Z,71.27
2019-06-08T23:30:13.971Z,71.33
2019-06-08T23:32:40.066Z,71.37
2019-06-08T23:35:07.924Z,71.33
2019-06-08T23:37:34.319Z,71.34
2019-06-08T23:40:00.899Z,71.41
2019-06-08T23:42:28.149Z,71.42
2019-06-08T23:44:54.203Z,71.45
2019-06-08T23:47:20.108Z,71.46
2019-06-08T23:49:47.428Z,71.46
2019-06-08T23:52:13.472Z,71.50
2019-06-08T23:54:39.373Z,71.59
2019-06-08T23:57:05.257Z,71.68
2019-06-08T23:59:31.307Z,71.72
